Kelly, Kansas
Current Conditions -  °F | °C
As of 6:53 PM on Tuesday 21 Oct 2014 (Local Time) from KFNB Reporting Station
Clear Clear  
Wind Chill: 17°   Ceiling: Unl
Heat Index: 17°   Visibility: 7mi
Dew Point:   Wind: 6mph
Humidity: 41%   Direction: 130°SE
Pressure: 30.04"   Gusts: NA
Location:  39.8497°N, 96.0411°W
Report Text: KFNB 212353Z AUTO 13005KT 7SM CLR 17/03 A3004 RMK AO2 SLP173 T01670033 10239 20167 55002
Loading
Personal Weather Stations






























Interactive Weather Map
Tropical Storm Tracking
New forecast layout! Learn more

10-Day Weather Forecast

Advertisements
Track Severe Weather on mobile